createdAt,value
2022-12-14T00:00:02.508Z,58.74
2022-12-14T00:03:18.029Z,57.34
2022-12-14T00:06:25.003Z,57.11
2022-12-14T00:09:29.487Z,57.22
2022-12-14T00:12:33.874Z,56.27
2022-12-14T00:15:39.186Z,56.07
2022-12-14T00:18:45.268Z,55.11
2022-12-14T00:21:49.963Z,53.92
2022-12-14T00:24:54.243Z,55.10
2022-12-14T00:27:58.689Z,53.17
2022-12-14T00:31:03.408Z,54.20
2022-12-14T00:34:07.903Z,54.47
2022-12-14T00:37:12.872Z,53.88
2022-12-14T00:40:17.284Z,55.66
2022-12-14T00:43:22.077Z,55.64
2022-12-14T00:46:26.842Z,54.65
2022-12-14T00:49:31.118Z,55.39
2022-12-14T00:52:35.612Z,56.68
2022-12-14T00:55:41.521Z,57.14
2022-12-14T00:58:51.123Z,58.23
2022-12-14T01:01:55.765Z,58.28
2022-12-14T01:05:00.233Z,57.64
2022-12-14T01:08:05.324Z,56.85
2022-12-14T01:11:11.029Z,56.65
2022-12-14T01:14:18.144Z,56.54
2022-12-14T01:17:22.586Z,57.31
2022-12-14T01:20:27.163Z,55.79
2022-12-14T01:23:31.393Z,54.60
2022-12-14T01:26:39.770Z,54.25
2022-12-14T01:29:44.136Z,55.90
2022-12-14T01:32:48.578Z,53.67
2022-12-14T01:35:53.046Z,52.65
2022-12-14T01:38:59.929Z,54.53
2022-12-14T01:42:04.608Z,53.75
2022-12-14T01:45:19.975Z,54.15
2022-12-14T01:48:24.952Z,54.43
2022-12-14T01:51:31.185Z,56.09
2022-12-14T01:54:39.000Z,55.07
2022-12-14T01:57:47.067Z,53.62
2022-12-14T02:00:56.615Z,55.51
2022-12-14T02:04:02.421Z,54.69
2022-12-14T02:07:07.190Z,54.37
2022-12-14T02:10:12.618Z,54.64
2022-12-14T02:13:22.907Z,53.98
2022-12-14T02:16:27.471Z,54.28
2022-12-14T02:19:32.125Z,53.39
2022-12-14T02:23:06.511Z,52.75
2022-12-14T02:26:38.181Z,53.02
2022-12-14T02:30:07.746Z,53.45
2022-12-14T02:33:43.012Z,53.88
2022-12-14T02:37:01.159Z,54.48
2022-12-14T02:40:23.537Z,53.21
2022-12-14T02:43:35.744Z,53.06
2022-12-14T02:47:26.282Z,54.18
2022-12-14T02:50:36.240Z,53.24
2022-12-14T02:53:47.536Z,52.20
2022-12-14T02:56:57.821Z,53.08
2022-12-14T03:00:05.284Z,52.63
2022-12-14T03:03:09.939Z,52.90
2022-12-14T03:06:29.298Z,52.49
2022-12-14T03:09:34.296Z,53.76
2022-12-14T03:12:42.090Z,53.67
2022-12-14T03:15:59.474Z,52.17
2022-12-14T03:19:31.629Z,54.06
2022-12-14T03:23:04.226Z,55.05
2022-12-14T03:26:16.915Z,55.48
2022-12-14T03:29:26.783Z,55.27
2022-12-14T03:32:33.438Z,55.99
2022-12-14T03:35:47.668Z,56.96
2022-12-14T03:38:55.074Z,55.59
2022-12-14T03:42:12.808Z,56.46
2022-12-14T03:45:22.151Z,56.93
2022-12-14T03:48:36.214Z,57.64
2022-12-14T03:51:59.017Z,57.46
2022-12-14T03:55:24.394Z,56.37
2022-12-14T03:58:49.105Z,55.05
2022-12-14T04:02:30.172Z,55.33
2022-12-14T04:05:48.901Z,55.64
2022-12-14T04:09:30.617Z,56.92
2022-12-14T04:13:00.085Z,57.13
2022-12-14T04:16:29.887Z,56.23
2022-12-14T04:20:02.481Z,56.67
2022-12-14T04:23:15.279Z,58.07
2022-12-14T04:26:28.861Z,58.66
2022-12-14T04:29:53.743Z,57.85
2022-12-14T04:33:22.607Z,57.09
2022-12-14T04:36:40.196Z,58.57
2022-12-14T04:39:51.710Z,57.14
2022-12-14T04:43:05.036Z,58.28
2022-12-14T04:46:11.196Z,57.30
2022-12-14T04:49:18.270Z,55.93
2022-12-14T04:52:33.325Z,56.62
2022-12-14T04:55:53.278Z,57.73
2022-12-14T04:58:57.951Z,57.32
2022-12-14T05:02:08.773Z,57.17
2022-12-14T05:05:27.098Z,57.79
2022-12-14T05:08:50.128Z,58.41
2022-12-14T05:12:01.590Z,59.84
2022-12-14T05:15:08.927Z,57.97
2022-12-14T05:18:13.586Z,58.46
2022-12-14T05:21:36.506Z,58.99
2022-12-14T05:24:40.976Z,59.63
2022-12-14T05:27:45.477Z,59.98
2022-12-14T05:30:49.884Z,59.63
2022-12-14T05:33:54.320Z,60.67
2022-12-14T05:36:59.063Z,61.54
2022-12-14T05:40:03.738Z,63.03
2022-12-14T05:43:10.005Z,65.68
2022-12-14T05:46:14.376Z,65.66
2022-12-14T05:49:18.792Z,65.70
2022-12-14T05:52:26.620Z,63.97
2022-12-14T05:55:30.867Z,63.64
2022-12-14T05:58:36.451Z,65.15
2022-12-14T06:01:40.745Z,64.38
2022-12-14T06:04:45.202Z,64.96
2022-12-14T06:07:49.523Z,65.19
2022-12-14T06:10:54.018Z,63.68
2022-12-14T06:13:58.477Z,64.41
2022-12-14T06:17:03.400Z,66.59
2022-12-14T06:20:08.001Z,65.95
2022-12-14T06:23:12.732Z,65.33
2022-12-14T06:26:18.196Z,64.53
2022-12-14T06:29:22.189Z,63.01
2022-12-14T06:32:27.235Z,63.79
2022-12-14T06:35:31.483Z,62.53
2022-12-14T06:38:36.797Z,66.95
2022-12-14T06:41:41.487Z,68.08
2022-12-14T06:44:45.961Z,68.43
2022-12-14T06:47:51.134Z,68.18
2022-12-14T06:51:02.231Z,68.24
2022-12-14T06:54:06.973Z,67.69
2022-12-14T06:57:11.389Z,66.50
2022-12-14T07:00:16.062Z,66.35
2022-12-14T07:03:20.633Z,65.35
2022-12-14T07:06:27.373Z,64.25
2022-12-14T07:09:31.863Z,64.38
2022-12-14T07:12:36.471Z,64.33
2022-12-14T07:15:40.975Z,63.94
2022-12-14T07:18:45.431Z,63.42
2022-12-14T07:21:49.919Z,64.25
2022-12-14T07:24:54.346Z,63.20
2022-12-14T07:27:58.761Z,65.10
2022-12-14T07:31:03.440Z,66.57
2022-12-14T07:34:07.940Z,66.58
2022-12-14T07:37:12.242Z,65.73
2022-12-14T07:40:16.603Z,66.85
2022-12-14T07:43:21.104Z,68.36
2022-12-14T07:46:27.916Z,69.23
2022-12-14T07:49:32.283Z,69.28
2022-12-14T07:52:37.761Z,68.35
2022-12-14T07:55:42.330Z,67.72
2022-12-14T07:58:47.069Z,68.05
2022-12-14T08:01:54.349Z,68.51
2022-12-14T08:04:58.869Z,67.68
2022-12-14T08:08:03.328Z,67.30
2022-12-14T08:11:08.570Z,66.80
2022-12-14T08:14:18.140Z,65.34
2022-12-14T08:17:22.319Z,66.54
2022-12-14T08:20:26.857Z,66.65
2022-12-14T08:23:31.924Z,64.93
2022-12-14T08:26:36.820Z,65.52
2022-12-14T08:29:41.358Z,67.22
2022-12-14T08:32:45.826Z,66.69
2022-12-14T08:35:50.530Z,66.49
2022-12-14T08:38:56.711Z,67.83
2022-12-14T08:42:01.290Z,67.76
2022-12-14T08:45:06.110Z,68.21
2022-12-14T08:48:10.392Z,69.02
2022-12-14T08:51:14.859Z,68.62
2022-12-14T08:54:20.332Z,68.61
2022-12-14T08:57:24.649Z,68.60
2022-12-14T09:00:29.287Z,68.12
2022-12-14T09:03:33.935Z,68.49
2022-12-14T09:06:40.732Z,67.77
2022-12-14T09:09:45.393Z,66.66
2022-12-14T09:12:49.790Z,65.22
2022-12-14T09:16:07.257Z,65.38
2022-12-14T09:19:11.776Z,65.06
2022-12-14T09:22:16.243Z,63.96
2022-12-14T09:25:20.699Z,64.32
2022-12-14T09:28:25.224Z,64.22
2022-12-14T09:31:33.499Z,64.49
2022-12-14T09:34:37.973Z,65.81
2022-12-14T09:37:42.522Z,66.57
2022-12-14T09:40:52.063Z,65.81
2022-12-14T09:44:00.913Z,66.17
2022-12-14T09:47:22.320Z,66.31
2022-12-14T09:50:28.022Z,66.67
2022-12-14T09:53:32.791Z,67.16
2022-12-14T09:56:39.723Z,66.85
2022-12-14T09:59:44.804Z,66.75
2022-12-14T10:03:43.060Z,67.04
2022-12-14T10:07:05.763Z,70.49
2022-12-14T10:10:31.543Z,70.62
2022-12-14T10:13:40.947Z,69.73
2022-12-14T10:17:22.045Z,69.17
2022-12-14T10:20:32.847Z,69.56
2022-12-14T10:23:37.339Z,70.44
2022-12-14T10:26:52.413Z,71.83
2022-12-14T10:30:09.232Z,71.18
2022-12-14T10:33:32.606Z,70.87
2022-12-14T10:37:02.973Z,69.55
2022-12-14T10:40:33.748Z,69.40
2022-12-14T10:43:53.386Z,68.61
2022-12-14T10:47:30.689Z,68.44
2022-12-14T10:50:50.760Z,67.61
2022-12-14T10:54:02.386Z,66.68
2022-12-14T10:57:07.352Z,66.94
2022-12-14T11:00:22.947Z,66.03
2022-12-14T11:03:29.919Z,65.50
2022-12-14T11:06:36.696Z,63.44
2022-12-14T11:09:45.370Z,63.46
2022-12-14T11:13:04.893Z,62.68
2022-12-14T11:16:33.587Z,62.19
2022-12-14T11:19:42.416Z,62.23
2022-12-14T11:22:57.074Z,61.38
2022-12-14T11:26:06.326Z,60.92
2022-12-14T11:29:31.298Z,61.79
2022-12-14T11:32:36.152Z,60.59
2022-12-14T11:35:50.611Z,60.74
2022-12-14T11:38:58.180Z,59.59
2022-12-14T11:42:05.160Z,60.61
2022-12-14T11:45:27.769Z,59.88
2022-12-14T11:48:33.120Z,59.57
2022-12-14T11:51:37.946Z,59.96
2022-12-14T11:54:50.154Z,59.58
2022-12-14T11:58:00.629Z,59.65
2022-12-14T12:01:28.296Z,60.11
2022-12-14T12:04:35.038Z,59.11
2022-12-14T12:07:46.730Z,59.20
2022-12-14T12:10:54.576Z,60.13
2022-12-14T12:14:40.153Z,58.74
2022-12-14T12:17:48.218Z,59.58
2022-12-14T12:21:13.981Z,58.85
2022-12-14T12:24:27.955Z,59.17
2022-12-14T12:27:34.211Z,59.35
2022-12-14T12:30:43.575Z,59.12
2022-12-14T12:33:51.532Z,57.88
2022-12-14T12:37:25.466Z,58.88
2022-12-14T12:40:31.428Z,58.81
2022-12-14T12:43:43.266Z,58.59
2022-12-14T12:47:26.761Z,58.91
2022-12-14T12:50:40.350Z,58.79
2022-12-14T12:53:49.033Z,58.85
2022-12-14T12:56:56.843Z,58.06
2022-12-14T13:00:02.306Z,58.23
2022-12-14T13:03:33.069Z,58.31
2022-12-14T13:07:24.332Z,57.49
2022-12-14T13:10:50.637Z,58.10
2022-12-14T13:14:25.397Z,57.57
2022-12-14T13:17:35.177Z,57.18
2022-12-14T13:20:39.546Z,57.10
2022-12-14T13:23:45.348Z,57.37
2022-12-14T13:27:05.518Z,57.36
2022-12-14T13:30:36.148Z,57.59
2022-12-14T13:33:52.145Z,56.96
2022-12-14T13:37:33.667Z,56.96
2022-12-14T13:40:54.203Z,57.55
2022-12-14T13:44:21.277Z,57.01
2022-12-14T13:47:44.898Z,57.51
2022-12-14T13:51:02.017Z,57.68
2022-12-14T13:54:28.401Z,57.79
2022-12-14T13:57:33.057Z,57.66
2022-12-14T14:00:49.092Z,57.14
2022-12-14T14:03:56.189Z,57.74
2022-12-14T14:07:38.264Z,56.58
2022-12-14T14:10:43.103Z,56.05
2022-12-14T14:14:07.564Z,57.26
2022-12-14T14:17:26.759Z,56.85
2022-12-14T14:20:45.413Z,57.40
2022-12-14T14:23:59.391Z,56.96
2022-12-14T14:27:18.590Z,56.82
2022-12-14T14:30:30.876Z,56.62
2022-12-14T14:33:49.435Z,56.88
2022-12-14T14:36:54.516Z,56.03
2022-12-14T14:40:22.000Z,56.68
2022-12-14T14:43:38.678Z,56.03
2022-12-14T14:46:47.331Z,55.31
2022-12-14T14:50:00.069Z,55.37
2022-12-14T14:53:27.178Z,56.43
2022-12-14T14:56:31.602Z,55.29
2022-12-14T14:59:51.049Z,56.00
2022-12-14T15:02:57.040Z,56.33
2022-12-14T15:06:02.264Z,57.41
2022-12-14T15:09:31.944Z,56.33
2022-12-14T15:13:01.041Z,57.38
2022-12-14T15:16:05.741Z,57.53
2022-12-14T15:19:37.210Z,57.34
2022-12-14T15:22:44.972Z,57.25
2022-12-14T15:26:00.856Z,56.44
2022-12-14T15:29:05.475Z,55.79
2022-12-14T15:32:18.529Z,56.62
2022-12-14T15:35:29.645Z,55.79
2022-12-14T15:38:37.453Z,56.58
2022-12-14T15:41:42.064Z,57.81
2022-12-14T15:44:54.233Z,57.77
2022-12-14T15:48:15.237Z,57.18
2022-12-14T15:51:20.143Z,57.20
2022-12-14T15:54:27.173Z,57.74
2022-12-14T15:57:33.073Z,58.28
2022-12-14T16:00:43.724Z,58.08
2022-12-14T16:03:52.637Z,58.21
2022-12-14T16:07:09.329Z,57.53
2022-12-14T16:10:33.671Z,57.21
2022-12-14T16:13:45.204Z,57.74
2022-12-14T16:16:50.085Z,57.87
2022-12-14T16:20:21.953Z,57.12
2022-12-14T16:23:33.826Z,57.53
2022-12-14T16:26:39.487Z,58.38
2022-12-14T16:29:50.087Z,56.97
2022-12-14T16:33:08.184Z,56.92
2022-12-14T16:36:21.868Z,57.12
2022-12-14T16:39:39.581Z,56.95
2022-12-14T16:42:45.728Z,57.24
2022-12-14T16:46:05.501Z,57.75
2022-12-14T16:49:31.186Z,58.17
2022-12-14T16:52:37.036Z,57.46
2022-12-14T16:56:07.166Z,57.67
2022-12-14T16:59:28.516Z,57.95
2022-12-14T17:02:41.249Z,57.04
2022-12-14T17:05:56.525Z,56.80
2022-12-14T17:09:01.026Z,57.33
2022-12-14T17:12:15.040Z,57.81
2022-12-14T17:15:22.766Z,57.81
2022-12-14T17:18:34.421Z,58.10
2022-12-14T17:21:39.192Z,58.16
2022-12-14T17:24:43.904Z,57.78
2022-12-14T17:27:49.443Z,58.18
2022-12-14T17:30:58.247Z,58.06
2022-12-14T17:34:02.668Z,57.96
2022-12-14T17:37:17.750Z,58.77
2022-12-14T17:40:22.836Z,57.96
2022-12-14T17:43:29.120Z,58.43
2022-12-14T17:46:34.039Z,58.40
2022-12-14T17:49:40.065Z,58.33
2022-12-14T17:52:45.329Z,58.42
2022-12-14T17:55:49.816Z,59.05
2022-12-14T17:58:54.109Z,59.03
2022-12-14T18:02:01.176Z,58.33
2022-12-14T18:05:05.839Z,57.92
2022-12-14T18:08:11.005Z,58.22
2022-12-14T18:11:22.332Z,57.97
2022-12-14T18:14:27.248Z,58.16
2022-12-14T18:17:31.653Z,57.49
2022-12-14T18:20:37.264Z,57.67
2022-12-14T18:23:41.613Z,58.03
2022-12-14T18:26:46.825Z,58.15
2022-12-14T18:29:52.006Z,57.65
2022-12-14T18:32:59.713Z,57.89
2022-12-14T18:36:04.603Z,58.09
2022-12-14T18:39:09.865Z,58.56
2022-12-14T18:42:19.198Z,58.37
2022-12-14T18:45:32.067Z,57.88
2022-12-14T18:48:36.589Z,58.00
2022-12-14T18:51:41.953Z,58.48
2022-12-14T18:54:46.249Z,57.36
2022-12-14T18:57:52.230Z,57.42
2022-12-14T19:00:59.421Z,57.45
2022-12-14T19:04:03.943Z,57.76
2022-12-14T19:07:08.527Z,57.21
2022-12-14T19:10:24.759Z,56.70
2022-12-14T19:13:29.473Z,56.63
2022-12-14T19:16:34.219Z,57.16
2022-12-14T19:19:44.413Z,56.68
2022-12-14T19:22:49.902Z,56.80
2022-12-14T19:25:54.268Z,57.52
2022-12-14T19:28:58.709Z,56.92
2022-12-14T19:32:05.518Z,56.78
2022-12-14T19:35:10.837Z,56.70
2022-12-14T19:38:17.091Z,56.99
2022-12-14T19:41:22.342Z,56.59
2022-12-14T19:44:27.085Z,56.14
2022-12-14T19:47:31.590Z,57.44
2022-12-14T19:50:36.169Z,56.29
2022-12-14T19:53:41.938Z,56.85
2022-12-14T19:56:46.626Z,57.98
2022-12-14T19:59:53.460Z,57.00
2022-12-14T20:02:58.223Z,56.77
2022-12-14T20:06:03.347Z,56.85
2022-12-14T20:09:07.432Z,56.76
2022-12-14T20:12:12.258Z,56.75
2022-12-14T20:15:16.862Z,56.09
2022-12-14T20:18:23.413Z,56.76
2022-12-14T20:21:30.152Z,56.24
2022-12-14T20:24:34.598Z,56.84
2022-12-14T20:27:41.016Z,56.51
2022-12-14T20:30:48.005Z,56.09
2022-12-14T20:33:52.908Z,56.30
2022-12-14T20:36:57.538Z,55.87
2022-12-14T20:40:01.876Z,55.71
2022-12-14T20:43:07.721Z,55.89
2022-12-14T20:46:25.728Z,55.04
2022-12-14T20:49:33.578Z,55.30
2022-12-14T20:52:37.911Z,55.22
2022-12-14T20:55:42.316Z,55.55
2022-12-14T20:58:48.458Z,55.26
2022-12-14T21:01:56.247Z,55.84
2022-12-14T21:05:01.013Z,55.76
2022-12-14T21:08:07.601Z,54.86
2022-12-14T21:11:30.524Z,53.87
2022-12-14T21:14:37.843Z,54.61
2022-12-14T21:17:42.403Z,54.94
2022-12-14T21:20:49.217Z,54.40
2022-12-14T21:23:53.939Z,54.11
2022-12-14T21:26:58.447Z,54.21
2022-12-14T21:30:02.929Z,55.08
2022-12-14T21:33:08.217Z,54.65
2022-12-14T21:36:13.325Z,54.77
2022-12-14T21:39:19.116Z,55.08
2022-12-14T21:42:24.947Z,55.03
2022-12-14T21:45:29.286Z,55.02
2022-12-14T21:48:34.030Z,54.14
2022-12-14T21:51:38.726Z,54.64
2022-12-14T21:54:43.785Z,55.05
2022-12-14T21:58:06.296Z,54.75
2022-12-14T22:01:11.268Z,54.76
2022-12-14T22:04:15.374Z,55.81
2022-12-14T22:07:22.509Z,53.83
2022-12-14T22:10:27.198Z,54.27
2022-12-14T22:13:31.808Z,54.00
2022-12-14T22:16:36.332Z,53.64
2022-12-14T22:19:40.654Z,54.70
2022-12-14T22:22:45.778Z,55.11
2022-12-14T22:25:51.004Z,54.48
2022-12-14T22:28:55.690Z,54.55
2022-12-14T22:32:00.354Z,54.15
2022-12-14T22:35:04.976Z,53.92
2022-12-14T22:38:09.255Z,53.91
2022-12-14T22:41:17.892Z,53.57
2022-12-14T22:44:22.118Z,53.35
2022-12-14T22:47:26.443Z,53.35
2022-12-14T22:50:30.782Z,53.58
2022-12-14T22:53:35.350Z,54.11
2022-12-14T22:56:49.875Z,53.88
2022-12-14T23:00:03.599Z,53.91
2022-12-14T23:03:08.856Z,53.11
2022-12-14T23:06:16.472Z,53.69
2022-12-14T23:09:39.364Z,53.88
2022-12-14T23:13:02.591Z,53.61
2022-12-14T23:16:25.922Z,53.41
2022-12-14T23:19:48.663Z,52.74
2022-12-14T23:23:11.826Z,52.50
2022-12-14T23:26:34.622Z,52.73
2022-12-14T23:29:57.997Z,53.27
2022-12-14T23:33:20.410Z,52.13
2022-12-14T23:36:43.174Z,52.57
2022-12-14T23:40:06.468Z,51.98
2022-12-14T23:43:30.250Z,52.47
2022-12-14T23:46:53.598Z,52.13
2022-12-14T23:50:16.400Z,51.76
2022-12-14T23:53:39.376Z,51.17
2022-12-14T23:57:02.309Z,50.96
